Oroso, Spain
Current Conditions -  °F | °C
As of 5:00 PM on Tuesday 21 Oct 2014 (Local Time) from LEST Reporting Station
Clear Clear  
Wind Chill: 77°   Ceiling: Unl
Heat Index: 79°   Visibility: 6mi
Dew Point: 59°   Wind: 2mph
Humidity: 54%   Direction: NA
Pressure: 30.36"   Gusts: NA
Location:  42.98°N, 8.43°W
Report Text: LEST 211500Z VRB02KT CAVOK 25/15 Q1028 NOSIG
Loading
Personal Weather Stations






























Interactive Weather Map
Tropical Storm Tracking
New forecast layout! Learn more

10-Day Weather Forecast

Advertisements
Track Severe Weather on mobile